createdAt,value
2023-01-01T00:00:41.891Z,0.00
2023-01-01T00:01:41.887Z,0.00
2023-01-01T00:02:41.802Z,0.00
2023-01-01T00:03:41.834Z,0.00
2023-01-01T00:04:41.795Z,0.00
2023-01-01T00:05:41.782Z,0.00
2023-01-01T00:06:41.763Z,0.00
2023-01-01T00:07:41.764Z,0.00
2023-01-01T00:08:41.750Z,0.00
2023-01-01T00:09:41.734Z,0.00
2023-01-01T00:10:41.721Z,0.00
2023-01-01T00:11:41.704Z,0.00
2023-01-01T00:12:41.717Z,0.00
2023-01-01T00:13:41.704Z,0.00
2023-01-01T00:14:41.675Z,0.00
2023-01-01T00:15:41.674Z,0.00
2023-01-01T00:16:41.858Z,0.00
2023-01-01T00:17:41.658Z,0.00
2023-01-01T00:18:41.653Z,0.00
2023-01-01T00:19:41.629Z,0.00
2023-01-01T00:20:41.622Z,0.00
2023-01-01T00:21:41.624Z,0.00
2023-01-01T00:22:54.516Z,0.00
2023-01-01T00:23:42.597Z,0.00
2023-01-01T00:24:41.577Z,0.00
2023-01-01T00:25:41.591Z,0.00
2023-01-01T00:26:41.547Z,0.00
2023-01-01T00:27:41.546Z,0.00
2023-01-01T00:28:41.522Z,0.00
2023-01-01T00:29:41.546Z,0.00
2023-01-01T00:30:41.489Z,0.00
2023-01-01T00:31:41.554Z,0.00
2023-01-01T00:32:41.475Z,0.00
2023-01-01T00:33:41.473Z,0.00
2023-01-01T00:34:41.507Z,0.00
2023-01-01T00:35:41.472Z,0.00
2023-01-01T00:36:41.457Z,0.00
2023-01-01T00:37:46.508Z,0.00
2023-01-01T00:38:42.409Z,0.00
2023-01-01T00:39:41.410Z,0.00
2023-01-01T00:40:41.398Z,0.00
2023-01-01T00:41:41.405Z,0.00
2023-01-01T00:42:41.361Z,0.00
2023-01-01T00:43:41.382Z,0.00
2023-01-01T00:44:41.359Z,0.00
2023-01-01T00:45:41.403Z,0.00
2023-01-01T00:46:41.344Z,0.00
2023-01-01T00:47:41.329Z,0.00
2023-01-01T00:48:41.329Z,0.00
2023-01-01T00:49:41.303Z,0.00
2023-01-01T00:50:41.323Z,0.00
2023-01-01T00:51:41.302Z,0.00
2023-01-01T00:52:41.253Z,0.00
2023-01-01T00:53:41.274Z,0.00
2023-01-01T00:54:41.241Z,0.00
2023-01-01T00:55:41.229Z,0.00
2023-01-01T00:56:41.232Z,0.00
2023-01-01T00:57:41.238Z,0.00
2023-01-01T00:58:41.212Z,0.00
2023-01-01T00:59:41.184Z,0.00
2023-01-01T01:00:41.186Z,0.00
2023-01-01T01:01:41.350Z,0.00
2023-01-01T01:02:41.564Z,0.00
2023-01-01T01:03:41.170Z,0.00
2023-01-01T01:04:41.145Z,0.00
2023-01-01T01:05:41.116Z,0.00
2023-01-01T01:06:41.120Z,0.00
2023-01-01T01:07:41.125Z,0.00
2023-01-01T01:08:41.086Z,0.00
2023-01-01T01:09:41.076Z,0.00
2023-01-01T01:10:41.060Z,0.00
2023-01-01T01:11:41.066Z,0.00
2023-01-01T01:12:41.057Z,0.00
2023-01-01T01:13:41.057Z,0.00
2023-01-01T01:14:41.018Z,0.00
2023-01-01T01:15:41.026Z,0.00
2023-01-01T01:16:41.028Z,0.00
2023-01-01T01:17:40.998Z,0.00
2023-01-01T01:18:41.012Z,0.00
2023-01-01T01:19:41.011Z,0.00
2023-01-01T01:20:40.961Z,0.00
2023-01-01T01:21:40.964Z,0.00
2023-01-01T01:22:40.974Z,0.00
2023-01-01T01:23:40.928Z,0.00
2023-01-01T01:24:40.934Z,0.00
2023-01-01T01:25:40.912Z,0.00
2023-01-01T01:26:40.890Z,0.00
2023-01-01T01:27:40.919Z,0.00
2023-01-01T01:28:47.120Z,0.00
2023-01-01T01:29:41.872Z,0.00
2023-01-01T01:30:40.914Z,0.00
2023-01-01T01:31:40.840Z,0.00
2023-01-01T01:32:40.856Z,0.00
2023-01-01T01:33:40.829Z,0.00
2023-01-01T01:34:40.818Z,0.00
2023-01-01T01:35:40.808Z,0.00
2023-01-01T01:36:40.782Z,0.00
2023-01-01T01:37:40.811Z,0.00
2023-01-01T01:38:40.776Z,0.00
2023-01-01T01:39:40.789Z,0.00
2023-01-01T01:40:40.744Z,0.00
2023-01-01T01:41:40.732Z,0.00
2023-01-01T01:42:40.756Z,0.00
2023-01-01T01:43:40.728Z,0.00
2023-01-01T01:44:40.695Z,0.00
2023-01-01T01:45:40.718Z,0.00
2023-01-01T01:46:40.693Z,0.00
2023-01-01T01:47:40.731Z,0.00
2023-01-01T01:48:40.672Z,0.00
2023-01-01T01:49:40.656Z,0.00
2023-01-01T01:50:40.639Z,0.00
2023-01-01T01:51:40.642Z,0.00
2023-01-01T01:52:40.638Z,0.00
2023-01-01T01:53:40.615Z,0.00
2023-01-01T01:54:40.603Z,0.00
2023-01-01T01:55:40.582Z,0.00
2023-01-01T01:56:40.587Z,0.00
2023-01-01T01:57:40.561Z,0.00
2023-01-01T01:58:40.583Z,0.00
2023-01-01T01:59:40.554Z,0.00
2023-01-01T02:00:40.564Z,0.00
2023-01-01T02:01:40.635Z,0.00
2023-01-01T02:02:40.737Z,0.00
2023-01-01T02:03:40.548Z,0.00
2023-01-01T02:04:40.476Z,0.00
2023-01-01T02:05:40.489Z,0.00
2023-01-01T02:06:40.465Z,0.00
2023-01-01T02:07:40.459Z,0.00
2023-01-01T02:08:40.474Z,0.00
2023-01-01T02:09:40.460Z,0.00
2023-01-01T02:10:40.418Z,0.00
2023-01-01T02:11:40.429Z,0.00
2023-01-01T02:12:40.407Z,0.00
2023-01-01T02:13:40.418Z,0.00
2023-01-01T02:14:40.406Z,0.00
2023-01-01T02:15:40.419Z,0.00
2023-01-01T02:16:40.349Z,0.00
2023-01-01T02:17:40.329Z,0.00
2023-01-01T02:18:40.342Z,0.00
2023-01-01T02:19:40.319Z,0.00
2023-01-01T02:20:40.345Z,0.00
2023-01-01T02:21:40.314Z,0.00
2023-01-01T02:22:40.300Z,0.00
2023-01-01T02:23:40.286Z,0.00
2023-01-01T02:24:40.259Z,0.00
2023-01-01T02:25:40.263Z,0.00
2023-01-01T02:26:40.239Z,0.00
2023-01-01T02:27:40.231Z,0.00
2023-01-01T02:28:40.232Z,0.00
2023-01-01T02:29:40.205Z,0.00
2023-01-01T02:30:40.272Z,0.00
2023-01-01T02:31:40.256Z,0.00
2023-01-01T02:32:40.181Z,0.00
2023-01-01T02:33:40.162Z,0.00
2023-01-01T02:34:40.173Z,0.00
2023-01-01T02:35:40.153Z,0.00
2023-01-01T02:36:40.133Z,0.00
2023-01-01T02:37:40.134Z,0.00
2023-01-01T02:38:40.125Z,0.00
2023-01-01T02:39:40.124Z,0.00
2023-01-01T02:40:40.093Z,0.00
2023-01-01T02:41:40.095Z,0.00
2023-01-01T02:42:40.088Z,0.00
2023-01-01T02:43:40.077Z,0.00
2023-01-01T02:44:40.084Z,0.00
2023-01-01T02:45:40.064Z,0.00
2023-01-01T02:46:40.035Z,0.00
2023-01-01T02:47:40.023Z,0.00
2023-01-01T02:48:40.070Z,0.00
2023-01-01T02:49:39.987Z,0.00
2023-01-01T02:50:39.997Z,0.00
2023-01-01T02:51:40.000Z,0.00
2023-01-01T02:52:39.965Z,0.00
2023-01-01T02:53:39.956Z,0.00
2023-01-01T02:54:39.938Z,0.00
2023-01-01T02:55:39.926Z,0.00
2023-01-01T02:56:39.940Z,0.00
2023-01-01T02:57:39.977Z,0.00
2023-01-01T02:58:39.908Z,0.00
2023-01-01T02:59:39.904Z,0.00
2023-01-01T03:00:39.895Z,0.00
2023-01-01T03:01:39.933Z,0.00
2023-01-01T03:02:43.802Z,0.00
2023-01-01T03:03:40.885Z,0.00
2023-01-01T03:04:39.849Z,0.00
2023-01-01T03:05:39.819Z,0.00
2023-01-01T03:06:39.829Z,0.00
2023-01-01T03:07:39.814Z,0.00
2023-01-01T03:08:39.807Z,0.00
2023-01-01T03:09:39.799Z,0.00
2023-01-01T03:10:39.771Z,0.00
2023-01-01T03:11:39.807Z,0.00
2023-01-01T03:12:40.034Z,0.00
2023-01-01T03:13:39.743Z,0.00
2023-01-01T03:14:39.740Z,0.00
2023-01-01T03:15:39.808Z,0.00
2023-01-01T03:16:39.720Z,0.00
2023-01-01T03:17:39.704Z,0.00
2023-01-01T03:18:39.703Z,0.00
2023-01-01T03:19:39.673Z,0.00
2023-01-01T03:20:39.687Z,0.00
2023-01-01T03:21:39.662Z,0.00
2023-01-01T03:23:15.996Z,0.00
2023-01-01T03:24:15.955Z,0.00
2023-01-01T03:25:15.975Z,0.00
2023-01-01T03:26:15.952Z,0.00
2023-01-01T03:27:15.953Z,0.00
2023-01-01T03:28:15.944Z,0.00
2023-01-01T03:29:15.926Z,0.00
2023-01-01T03:30:15.926Z,0.00
2023-01-01T03:31:15.957Z,0.00
2023-01-01T03:32:15.892Z,0.00
2023-01-01T03:33:15.883Z,0.00
2023-01-01T03:34:15.867Z,0.00
2023-01-01T03:35:15.867Z,0.00
2023-01-01T03:36:15.844Z,0.00
2023-01-01T03:37:15.846Z,0.00
2023-01-01T03:38:15.815Z,0.00
2023-01-01T03:39:15.829Z,0.00
2023-01-01T03:40:15.792Z,0.00
2023-01-01T03:41:15.789Z,0.00
2023-01-01T03:42:15.789Z,0.00
2023-01-01T03:43:15.770Z,0.00
2023-01-01T03:44:15.777Z,0.00
2023-01-01T03:45:15.748Z,0.00
2023-01-01T03:46:15.787Z,0.00
2023-01-01T03:47:15.731Z,0.00
2023-01-01T03:48:15.714Z,0.00
2023-01-01T03:49:15.740Z,0.00
2023-01-01T03:50:15.700Z,0.00
2023-01-01T03:51:15.699Z,0.00
2023-01-01T03:52:15.680Z,0.00
2023-01-01T03:53:15.675Z,0.00
2023-01-01T03:54:15.665Z,0.00
2023-01-01T03:55:15.640Z,0.00
2023-01-01T03:56:15.620Z,0.00
2023-01-01T03:57:15.631Z,0.00
2023-01-01T03:58:15.621Z,0.00
2023-01-01T03:59:15.600Z,0.00
2023-01-01T04:00:15.598Z,0.00
2023-01-01T04:01:15.639Z,0.00
2023-01-01T04:02:15.578Z,0.00
2023-01-01T04:03:15.625Z,0.00
2023-01-01T04:04:15.568Z,0.00
2023-01-01T04:05:15.535Z,0.00
2023-01-01T04:06:15.524Z,0.00
2023-01-01T04:07:16.023Z,0.00
2023-01-01T04:08:15.515Z,0.00
2023-01-01T04:09:15.490Z,0.00
2023-01-01T04:10:15.465Z,0.00
2023-01-01T04:11:15.510Z,0.00
2023-01-01T04:12:15.451Z,0.00
2023-01-01T04:13:15.456Z,0.00
2023-01-01T04:14:15.435Z,0.00
2023-01-01T04:15:15.415Z,0.00
2023-01-01T04:16:15.447Z,0.00
2023-01-01T04:17:15.428Z,0.00
2023-01-01T04:18:15.419Z,0.00
2023-01-01T04:19:15.386Z,0.00
2023-01-01T04:20:15.366Z,0.00
2023-01-01T04:21:15.359Z,0.00
2023-01-01T04:22:15.367Z,0.00
2023-01-01T04:23:15.337Z,0.00
2023-01-01T04:24:15.326Z,0.00
2023-01-01T04:25:15.321Z,0.00
2023-01-01T04:26:15.307Z,0.00
2023-01-01T04:27:15.315Z,0.00
2023-01-01T04:28:15.277Z,0.00
2023-01-01T04:29:15.286Z,0.00
2023-01-01T04:30:15.271Z,0.00
2023-01-01T04:31:15.270Z,0.00
2023-01-01T04:32:15.260Z,0.00
2023-01-01T04:33:15.238Z,0.00
2023-01-01T04:34:15.224Z,0.00
2023-01-01T04:35:15.228Z,0.00
2023-01-01T04:36:15.188Z,0.00
2023-01-01T04:37:15.195Z,0.00
2023-01-01T04:38:15.166Z,0.00
2023-01-01T04:39:15.181Z,0.00
2023-01-01T04:40:15.177Z,0.00
2023-01-01T04:41:15.132Z,0.00
2023-01-01T04:42:15.140Z,0.00
2023-01-01T04:43:15.110Z,0.00
2023-01-01T04:44:15.112Z,0.00
2023-01-01T04:45:15.507Z,0.00
2023-01-01T04:46:15.109Z,0.00
2023-01-01T04:47:15.091Z,0.00
2023-01-01T04:48:15.058Z,0.00
2023-01-01T04:49:15.074Z,0.00
2023-01-01T04:50:15.077Z,0.00
2023-01-01T04:51:15.027Z,0.00
2023-01-01T04:52:15.032Z,0.00
2023-01-01T04:53:15.006Z,0.00
2023-01-01T04:54:15.014Z,0.00
2023-01-01T04:55:15.007Z,0.00
2023-01-01T04:56:14.996Z,0.00
2023-01-01T04:57:14.989Z,0.00
2023-01-01T04:58:14.943Z,0.00
2023-01-01T04:59:14.954Z,0.00
2023-01-01T05:00:14.949Z,0.00
2023-01-01T05:01:14.997Z,0.00
2023-01-01T05:02:14.969Z,0.00
2023-01-01T05:03:14.931Z,0.00
2023-01-01T05:04:14.906Z,0.00
2023-01-01T05:05:14.901Z,0.00
2023-01-01T05:06:14.855Z,0.00
2023-01-01T05:07:14.867Z,0.00
2023-01-01T05:08:14.855Z,0.00
2023-01-01T05:09:14.864Z,0.00
2023-01-01T05:10:14.844Z,0.00
2023-01-01T05:11:14.814Z,0.00
2023-01-01T05:12:14.802Z,0.00
2023-01-01T05:13:14.823Z,0.00
2023-01-01T05:14:14.808Z,0.00
2023-01-01T05:15:14.767Z,0.00
2023-01-01T05:16:14.812Z,0.00
2023-01-01T05:17:14.859Z,0.00
2023-01-01T05:18:14.725Z,0.00
2023-01-01T05:19:14.763Z,0.00
2023-01-01T05:20:14.728Z,0.00
2023-01-01T05:21:14.701Z,0.00
2023-01-01T05:22:14.694Z,0.00
2023-01-01T05:23:14.689Z,0.00
2023-01-01T05:24:14.670Z,0.00
2023-01-01T05:25:14.680Z,0.00
2023-01-01T05:26:14.660Z,0.00
2023-01-01T05:27:14.640Z,0.00
2023-01-01T05:28:14.629Z,0.00
2023-01-01T05:29:16.829Z,0.00
2023-01-01T05:30:14.620Z,0.00
2023-01-01T05:31:14.645Z,0.00
2023-01-01T05:32:46.710Z,0.00
2023-01-01T05:33:46.760Z,0.00
2023-01-01T05:34:46.717Z,0.00
2023-01-01T05:35:46.707Z,0.00
2023-01-01T05:36:46.688Z,0.00
2023-01-01T05:37:46.680Z,0.00
2023-01-01T05:38:46.692Z,0.00
2023-01-01T05:39:46.644Z,0.00
2023-01-01T05:40:46.670Z,0.00
2023-01-01T05:41:46.621Z,0.00
2023-01-01T05:42:46.634Z,0.00
2023-01-01T05:43:46.616Z,0.00
2023-01-01T05:44:46.594Z,0.00
2023-01-01T05:45:46.695Z,0.00
2023-01-01T05:46:46.574Z,0.00
2023-01-01T05:47:46.569Z,0.00
2023-01-01T05:48:46.541Z,0.00
2023-01-01T05:49:46.550Z,0.00
2023-01-01T05:50:46.532Z,0.00
2023-01-01T05:51:46.538Z,0.00
2023-01-01T05:52:46.516Z,0.00
2023-01-01T05:53:46.494Z,0.00
2023-01-01T05:54:46.482Z,0.00
2023-01-01T05:55:46.507Z,0.00
2023-01-01T05:56:46.462Z,0.00
2023-01-01T05:57:46.504Z,0.00
2023-01-01T05:58:46.446Z,0.00
2023-01-01T05:59:46.438Z,0.00
2023-01-01T06:00:46.415Z,0.00
2023-01-01T06:01:46.559Z,0.00
2023-01-01T06:02:46.459Z,0.00
2023-01-01T06:03:46.397Z,0.00
2023-01-01T06:04:46.454Z,0.00
2023-01-01T06:05:46.368Z,0.00
2023-01-01T06:06:46.376Z,0.00
2023-01-01T06:07:48.576Z,0.00
2023-01-01T06:08:46.339Z,0.00
2023-01-01T06:09:46.330Z,0.00
2023-01-01T06:10:46.318Z,0.00
2023-01-01T06:11:46.323Z,0.00
2023-01-01T06:12:46.301Z,0.00
2023-01-01T06:13:46.291Z,0.00
2023-01-01T06:14:46.281Z,0.00
2023-01-01T06:15:46.268Z,0.00
2023-01-01T06:16:46.300Z,0.00
2023-01-01T06:17:46.257Z,0.00
2023-01-01T06:18:46.222Z,0.00
2023-01-01T06:19:46.234Z,0.00
2023-01-01T06:20:46.210Z,0.00
2023-01-01T06:21:46.210Z,0.00
2023-01-01T06:22:46.198Z,0.00
2023-01-01T06:23:46.177Z,0.00
2023-01-01T06:24:46.161Z,0.00
2023-01-01T06:25:46.162Z,0.00
2023-01-01T06:26:46.151Z,0.00
2023-01-01T06:27:46.134Z,0.00
2023-01-01T06:28:46.116Z,0.00
2023-01-01T06:29:46.145Z,0.00
2023-01-01T06:30:46.837Z,0.00
2023-01-01T06:31:46.118Z,0.00
2023-01-01T06:32:46.094Z,0.00
2023-01-01T06:33:46.075Z,0.00
2023-01-01T06:34:46.064Z,0.00
2023-01-01T06:35:46.051Z,0.00
2023-01-01T06:36:46.047Z,0.00
2023-01-01T06:37:46.039Z,0.00
2023-01-01T06:38:46.073Z,0.00
2023-01-01T06:39:46.026Z,0.00
2023-01-01T06:40:45.996Z,0.00
2023-01-01T06:41:46.019Z,0.00
2023-01-01T06:42:45.971Z,0.00
2023-01-01T06:43:45.965Z,0.00
2023-01-01T06:44:45.945Z,0.00
2023-01-01T06:45:45.968Z,0.00
2023-01-01T06:46:46.018Z,0.00
2023-01-01T06:47:45.917Z,4.00
2023-01-01T06:48:45.906Z,4.00
2023-01-01T06:49:45.894Z,4.00
2023-01-01T06:50:45.885Z,0.00
2023-01-01T06:51:45.920Z,4.00
2023-01-01T06:52:45.875Z,4.00
2023-01-01T06:53:45.870Z,4.00
2023-01-01T06:54:45.837Z,4.00
2023-01-01T06:55:45.846Z,4.00
2023-01-01T06:56:45.838Z,8.00
2023-01-01T06:57:45.825Z,8.00
2023-01-01T06:58:45.809Z,8.00
2023-01-01T06:59:45.798Z,8.00
2023-01-01T07:00:45.778Z,8.00
2023-01-01T07:01:45.865Z,12.00
2023-01-01T07:02:45.930Z,16.00
2023-01-01T07:03:45.806Z,16.00
2023-01-01T07:04:45.761Z,16.00
2023-01-01T07:05:45.720Z,20.00
2023-01-01T07:06:45.742Z,24.00
2023-01-01T07:07:45.726Z,24.00
2023-01-01T07:08:45.704Z,28.00
2023-01-01T07:09:45.711Z,32.00
2023-01-01T07:10:45.687Z,40.00
2023-01-01T07:11:45.660Z,40.00
2023-01-01T07:12:45.671Z,48.00
2023-01-01T07:13:45.665Z,52.00
2023-01-01T07:14:45.641Z,56.00
2023-01-01T07:15:45.658Z,60.00
2023-01-01T07:16:45.599Z,60.00
2023-01-01T07:17:45.632Z,68.00
2023-01-01T07:18:45.599Z,72.00
2023-01-01T07:19:45.601Z,80.00
2023-01-01T07:20:45.559Z,84.00
2023-01-01T07:21:45.579Z,92.00
2023-01-01T07:22:45.564Z,104.00
2023-01-01T07:23:45.533Z,112.00
2023-01-01T07:24:45.544Z,124.00
2023-01-01T07:25:45.516Z,132.00
2023-01-01T07:26:45.498Z,140.00
2023-01-01T07:27:45.514Z,156.00
2023-01-01T07:28:45.519Z,172.00
2023-01-01T07:29:45.474Z,184.00
2023-01-01T07:30:45.504Z,204.00
2023-01-01T07:31:45.479Z,208.00
2023-01-01T07:32:45.444Z,212.00
2023-01-01T07:33:45.443Z,220.00
2023-01-01T07:34:50.520Z,224.00
2023-01-01T07:35:46.438Z,228.00
2023-01-01T07:36:45.396Z,236.00
2023-01-01T07:37:45.385Z,248.00
2023-01-01T07:38:45.386Z,256.00
2023-01-01T07:39:45.386Z,264.00
2023-01-01T07:40:45.356Z,276.00
2023-01-01T07:41:45.355Z,284.00
2023-01-01T07:42:45.330Z,288.00
2023-01-01T07:43:45.317Z,292.00
2023-01-01T07:44:45.330Z,292.00
2023-01-01T07:45:45.311Z,296.00
2023-01-01T07:46:45.360Z,300.00
2023-01-01T07:47:45.287Z,304.00
2023-01-01T07:48:45.257Z,308.00
2023-01-01T07:49:45.254Z,312.00
2023-01-01T07:50:45.289Z,312.00
2023-01-01T07:51:45.248Z,320.00
2023-01-01T07:52:45.217Z,324.00
2023-01-01T07:53:45.210Z,332.00
2023-01-01T07:54:45.229Z,340.00
2023-01-01T07:55:45.191Z,348.00
2023-01-01T07:56:45.223Z,356.00
2023-01-01T07:57:45.204Z,360.00
2023-01-01T07:58:45.182Z,368.00
2023-01-01T07:59:45.178Z,368.00
2023-01-01T08:00:45.130Z,376.00
2023-01-01T08:01:45.222Z,380.00
2023-01-01T08:02:45.246Z,388.00
2023-01-01T08:03:45.139Z,392.00
2023-01-01T08:04:45.112Z,396.00
2023-01-01T08:05:45.138Z,400.00
2023-01-01T08:06:45.079Z,404.00
2023-01-01T08:07:45.060Z,408.00
2023-01-01T08:08:45.042Z,412.00
2023-01-01T08:09:45.056Z,416.00
2023-01-01T08:10:45.046Z,424.00
2023-01-01T08:11:45.020Z,428.00
2023-01-01T08:12:45.031Z,432.00
2023-01-01T08:13:45.010Z,436.00
2023-01-01T08:14:44.989Z,440.00
2023-01-01T08:15:45.038Z,440.00
2023-01-01T08:16:44.997Z,444.00
2023-01-01T08:17:47.249Z,444.00
2023-01-01T08:18:44.987Z,452.00
2023-01-01T08:19:45.964Z,468.00
2023-01-01T08:20:44.962Z,484.00
2023-01-01T08:21:45.963Z,500.00
2023-01-01T08:22:44.915Z,516.00
2023-01-01T08:23:45.944Z,536.00
2023-01-01T08:24:44.907Z,564.00
2023-01-01T08:25:45.595Z,592.00
2023-01-01T08:26:44.891Z,620.00
2023-01-01T08:27:44.918Z,652.00
2023-01-01T08:28:44.906Z,684.00
2023-01-01T08:29:45.326Z,700.00
2023-01-01T08:30:44.849Z,696.00
2023-01-01T08:31:45.567Z,684.00
2023-01-01T08:32:44.798Z,672.00
2023-01-01T08:33:44.844Z,656.00
2023-01-01T08:34:44.790Z,648.00
2023-01-01T08:35:48.932Z,644.00
2023-01-01T08:36:45.777Z,652.00
2023-01-01T08:37:44.751Z,664.00
2023-01-01T08:38:44.740Z,680.00
2023-01-01T08:39:44.716Z,692.00
2023-01-01T08:40:44.702Z,696.00
2023-01-01T08:41:44.725Z,712.00
2023-01-01T08:42:44.687Z,728.00
2023-01-01T08:43:44.724Z,748.00
2023-01-01T08:44:44.675Z,768.00
2023-01-01T08:45:44.682Z,784.00
2023-01-01T08:46:44.731Z,800.00
2023-01-01T08:47:44.640Z,816.00
2023-01-01T08:48:44.635Z,828.00
2023-01-01T08:49:44.629Z,884.00
2023-01-01T08:50:44.603Z,908.00
2023-01-01T08:51:44.611Z,920.00
2023-01-01T08:52:44.609Z,936.00
2023-01-01T08:53:50.542Z,940.00
2023-01-01T08:54:45.598Z,952.00
2023-01-01T08:55:44.601Z,964.00
2023-01-01T08:56:44.552Z,980.00
2023-01-01T08:57:44.543Z,996.00
2023-01-01T08:58:44.532Z,1008.00
2023-01-01T08:59:44.525Z,1020.00
2023-01-01T09:00:44.515Z,1040.00
2023-01-01T09:01:44.782Z,1056.00
2023-01-01T09:02:44.599Z,1064.00
2023-01-01T09:03:44.481Z,1072.00
2023-01-01T09:04:44.481Z,1064.00
2023-01-01T09:05:44.444Z,1064.00
2023-01-01T09:06:44.437Z,1064.00
2023-01-01T09:07:44.473Z,1068.00
2023-01-01T09:08:44.413Z,1052.00
2023-01-01T09:09:44.414Z,1048.00
2023-01-01T09:10:44.396Z,1048.00
2023-01-01T09:11:44.388Z,1056.00
2023-01-01T09:12:44.395Z,1072.00
2023-01-01T09:13:44.359Z,1080.00
2023-01-01T09:14:44.388Z,1080.00
2023-01-01T09:15:44.335Z,1072.00
2023-01-01T09:16:44.567Z,1068.00
2023-01-01T09:17:44.344Z,1068.00
2023-01-01T09:18:44.332Z,1056.00
2023-01-01T09:19:44.313Z,1044.00
2023-01-01T09:20:44.290Z,1040.00
2023-01-01T09:21:44.276Z,1040.00
2023-01-01T09:22:44.282Z,1044.00
2023-01-01T09:23:44.261Z,1044.00
2023-01-01T09:24:44.264Z,1052.00
2023-01-01T09:25:44.240Z,1052.00
2023-01-01T09:26:44.229Z,1048.00
2023-01-01T09:27:44.197Z,1048.00
2023-01-01T09:28:44.205Z,1060.00
2023-01-01T09:29:44.196Z,1068.00
2023-01-01T09:30:44.205Z,1088.00
2023-01-01T09:31:44.241Z,1108.00
2023-01-01T09:32:44.158Z,1124.00
2023-01-01T09:33:44.156Z,1144.00
2023-01-01T09:34:50.383Z,1164.00
2023-01-01T09:35:45.136Z,1192.00
2023-01-01T09:36:44.122Z,1224.00
2023-01-01T09:37:44.122Z,1240.00
2023-01-01T09:38:44.105Z,1256.00
2023-01-01T09:39:44.072Z,1256.00
2023-01-01T09:40:50.803Z,1264.00
2023-01-01T09:41:45.055Z,1280.00
2023-01-01T09:42:44.087Z,1288.00
2023-01-01T09:43:44.051Z,1296.00
2023-01-01T09:44:44.038Z,1320.00
2023-01-01T09:45:44.036Z,1344.00
2023-01-01T09:46:44.002Z,1360.00
2023-01-01T09:47:44.010Z,1376.00
2023-01-01T09:48:43.982Z,1384.00
2023-01-01T09:49:43.972Z,1408.00
2023-01-01T09:50:43.997Z,1440.00
2023-01-01T09:51:50.079Z,1488.00
2023-01-01T09:52:44.959Z,1480.00
2023-01-01T09:53:43.933Z,1512.00
2023-01-01T09:54:43.924Z,1608.00
2023-01-01T09:55:43.924Z,1700.00
2023-01-01T09:56:43.922Z,1764.00
2023-01-01T09:57:43.896Z,1772.00
2023-01-01T09:58:43.883Z,1788.00
2023-01-01T09:59:43.885Z,1836.00
2023-01-01T10:00:43.913Z,1888.00
2023-01-01T10:01:43.949Z,1956.00
2023-01-01T10:02:49.689Z,2048.00
2023-01-01T10:03:44.834Z,2124.00
2023-01-01T10:04:43.816Z,2184.00
2023-01-01T10:05:43.811Z,2200.00
2023-01-01T10:06:43.824Z,2180.00
2023-01-01T10:07:43.804Z,2160.00
2023-01-01T10:08:43.790Z,2184.00
2023-01-01T10:09:43.768Z,2188.00
2023-01-01T10:10:43.767Z,2280.00
2023-01-01T10:11:43.728Z,2256.00
2023-01-01T10:12:43.748Z,2300.00
2023-01-01T10:13:43.730Z,2344.00
2023-01-01T10:14:43.723Z,2368.00
2023-01-01T10:15:43.713Z,2384.00
2023-01-01T10:16:43.714Z,2360.00
2023-01-01T10:17:43.677Z,2328.00
2023-01-01T10:18:43.708Z,2296.00
2023-01-01T10:19:43.658Z,2296.00
2023-01-01T10:20:43.649Z,2244.00
2023-01-01T10:21:47.136Z,2168.00
2023-01-01T10:22:43.623Z,2128.00
2023-01-01T10:23:43.669Z,2112.00
2023-01-01T10:24:43.635Z,2148.00
2023-01-01T10:25:43.593Z,2140.00
2023-01-01T10:26:43.592Z,2180.00
2023-01-01T10:27:43.572Z,2208.00
2023-01-01T10:28:43.563Z,2260.00
2023-01-01T10:29:43.584Z,2324.00
2023-01-01T10:30:43.556Z,2360.00
2023-01-01T10:31:43.608Z,2352.00
2023-01-01T10:32:43.521Z,2372.00
2023-01-01T10:33:43.500Z,2404.00
2023-01-01T10:34:43.531Z,2380.00
2023-01-01T10:35:43.490Z,2428.00
2023-01-01T10:36:43.494Z,2484.00
2023-01-01T10:37:43.510Z,2548.00
2023-01-01T10:38:43.452Z,2592.00
2023-01-01T10:39:43.461Z,2584.00
2023-01-01T10:40:43.439Z,2556.00
2023-01-01T10:41:43.423Z,2580.00
2023-01-01T10:42:43.419Z,2588.00
2023-01-01T10:43:43.394Z,2612.00
2023-01-01T10:44:43.396Z,2580.00
2023-01-01T10:45:43.438Z,2588.00
2023-01-01T10:46:43.387Z,2572.00
2023-01-01T10:47:43.376Z,2608.00
2023-01-01T10:48:43.450Z,2616.00
2023-01-01T10:49:43.362Z,2628.00
2023-01-01T10:50:43.334Z,2700.00
2023-01-01T10:51:43.327Z,2772.00
2023-01-01T10:52:43.323Z,2832.00
2023-01-01T10:53:43.324Z,2820.00
2023-01-01T10:54:43.280Z,2856.00
2023-01-01T10:55:43.278Z,2924.00
2023-01-01T10:56:43.276Z,2944.00
2023-01-01T10:57:43.240Z,3016.00
2023-01-01T10:58:43.320Z,3112.00
2023-01-01T10:59:48.139Z,3068.00
2023-01-01T11:00:44.210Z,3112.00
2023-01-01T11:01:43.287Z,3060.00
2023-01-01T11:02:43.391Z,3040.00
2023-01-01T11:03:43.251Z,3040.00
2023-01-01T11:04:43.175Z,3020.00
2023-01-01T11:05:43.189Z,2976.00
2023-01-01T11:06:43.198Z,2916.00
2023-01-01T11:07:43.147Z,2940.00
2023-01-01T11:08:43.159Z,2908.00
2023-01-01T11:10:01.655Z,2948.00
2023-01-01T11:10:44.120Z,2916.00
2023-01-01T11:11:43.102Z,2924.00
2023-01-01T11:13:44.068Z,2908.00
2023-01-01T11:14:43.087Z,2892.00
2023-01-01T11:15:43.078Z,2852.00
2023-01-01T11:16:43.089Z,2876.00
2023-01-01T11:17:43.024Z,3012.00
2023-01-01T11:18:43.034Z,3192.00
2023-01-01T11:19:48.747Z,3260.00
2023-01-01T11:20:44.028Z,3392.00
2023-01-01T11:21:42.994Z,3428.00
2023-01-01T11:22:42.999Z,3504.00
2023-01-01T11:23:42.967Z,3548.00
2023-01-01T11:24:42.956Z,3660.00
2023-01-01T11:25:42.965Z,3896.00
2023-01-01T11:26:42.935Z,4344.00
2023-01-01T11:27:42.921Z,6520.00
2023-01-01T11:28:42.929Z,9788.00
2023-01-01T11:29:42.916Z,10876.00
2023-01-01T11:30:42.908Z,10024.00
2023-01-01T11:31:42.883Z,9204.00
2023-01-01T11:32:42.880Z,7404.00
2023-01-01T11:33:42.855Z,5584.00
2023-01-01T11:34:42.860Z,4572.00
2023-01-01T11:35:42.851Z,3960.00
2023-01-01T11:36:42.832Z,3992.00
2023-01-01T11:37:42.829Z,4068.00
2023-01-01T11:38:43.529Z,4072.00
2023-01-01T11:39:42.810Z,4180.00
2023-01-01T11:40:43.523Z,4188.00
2023-01-01T11:41:42.800Z,4144.00
2023-01-01T11:42:43.489Z,4172.00
2023-01-01T11:43:42.772Z,4256.00
2023-01-01T11:44:43.777Z,4780.00
2023-01-01T11:45:42.758Z,7160.00
2023-01-01T11:46:43.452Z,10360.00
2023-01-01T11:47:42.722Z,11616.00
2023-01-01T11:48:42.955Z,11856.00
2023-01-01T11:49:42.682Z,12644.00
2023-01-01T11:50:42.706Z,12464.00
2023-01-01T11:51:42.673Z,12880.00
2023-01-01T11:52:43.360Z,11996.00
2023-01-01T11:53:42.663Z,9212.00
2023-01-01T11:54:42.654Z,12368.00
2023-01-01T11:55:42.654Z,13020.00
2023-01-01T11:56:42.627Z,14048.00
2023-01-01T11:57:42.618Z,12880.00
2023-01-01T11:58:42.626Z,14272.00
2023-01-01T11:59:42.602Z,13812.00
2023-01-01T12:00:42.602Z,14976.00
2023-01-01T12:01:42.609Z,15168.00
2023-01-01T12:02:42.613Z,13896.00
2023-01-01T12:03:42.603Z,14400.00
2023-01-01T12:04:42.545Z,11972.00
2023-01-01T12:05:42.524Z,15328.00
2023-01-01T12:06:42.536Z,15040.00
2023-01-01T12:07:42.513Z,14432.00
2023-01-01T12:08:42.500Z,16576.00
2023-01-01T12:09:42.470Z,17664.00
2023-01-01T12:10:42.475Z,18016.00
2023-01-01T12:11:42.470Z,18368.00
2023-01-01T12:12:42.465Z,18368.00
2023-01-01T12:13:42.441Z,18336.00
2023-01-01T12:14:42.436Z,18048.00
2023-01-01T12:15:42.467Z,17696.00
2023-01-01T12:16:42.400Z,17376.00
2023-01-01T12:17:42.399Z,19200.00
2023-01-01T12:18:42.417Z,18976.00
2023-01-01T12:19:42.372Z,16672.00
2023-01-01T12:20:42.360Z,15936.00
2023-01-01T12:21:45.176Z,15424.00
2023-01-01T12:22:43.638Z,14944.00
2023-01-01T12:23:42.353Z,16544.00
2023-01-01T12:24:42.333Z,13432.00
2023-01-01T12:25:42.307Z,13052.00
2023-01-01T12:26:42.305Z,13308.00
2023-01-01T12:27:42.281Z,16672.00
2023-01-01T12:28:42.298Z,16032.00
2023-01-01T12:29:42.285Z,17120.00
2023-01-01T12:30:42.256Z,17216.00
2023-01-01T12:31:42.253Z,15712.00
2023-01-01T12:32:42.264Z,16160.00
2023-01-01T12:33:42.244Z,16032.00
2023-01-01T12:34:42.253Z,15840.00
2023-01-01T12:35:42.198Z,17568.00
2023-01-01T12:36:42.209Z,18272.00
2023-01-01T12:37:42.177Z,17408.00
2023-01-01T12:38:42.189Z,15616.00
2023-01-01T12:39:42.159Z,15232.00
2023-01-01T12:40:42.152Z,14592.00
2023-01-01T12:41:42.148Z,11528.00
2023-01-01T12:42:42.135Z,11940.00
2023-01-01T12:43:42.139Z,12176.00
2023-01-01T12:44:42.109Z,11676.00
2023-01-01T12:45:42.105Z,11724.00
2023-01-01T12:46:42.110Z,10480.00
2023-01-01T12:47:42.807Z,10512.00
2023-01-01T12:48:42.099Z,9344.00